Apalachicola, Florida
Current Conditions -  °F | °C
As of 9:53 AM on Thursday 23 Oct 2014 (Local Time) from KAAF Reporting Station
Clear Clear  
Wind Chill: 66°   Ceiling: Unl
Heat Index: 66°   Visibility: 10mi
Dew Point: 52°   Wind: 7mph
Humidity: 60%   Direction: 40°NE
Pressure: 30.09"   Gusts: NA
Location:  29.73°N, 84.99°W
Report Text: KAAF 231353Z AUTO 04006KT 10SM CLR 19/11 A3009 RMK AO2 SLP188 T01890111 TSNO
Loading
Personal Weather Stations






























Interactive Weather Map New forecast layout! Learn more

10-Day Weather Forecast

Advertisements
Track Severe Weather on mobile